sensor_id;sensor_type;location;lat;lon;timestamp;P1;durP1;ratioP1;P2;durP2;ratioP2
12947;SDS011;6539;49.476;8.484;2023-04-26T00:02:05;5.13;;;3.00;;
12947;SDS011;6539;49.476;8.484;2023-04-26T00:04:31;4.47;;;2.70;;
12947;SDS011;6539;49.476;8.484;2023-04-26T00:06:57;6.67;;;2.57;;
12947;SDS011;6539;49.476;8.484;2023-04-26T00:09:27;8.27;;;2.70;;
12947;SDS011;6539;49.476;8.484;2023-04-26T00:11:55;6.13;;;3.13;;
12947;SDS011;6539;49.476;8.484;2023-04-26T00:14:21;8.17;;;2.77;;
12947;SDS011;6539;49.476;8.484;2023-04-26T00:16:52;6.83;;;2.50;;
12947;SDS011;6539;49.476;8.484;2023-04-26T00:19:20;4.90;;;3.13;;
12947;SDS011;6539;49.476;8.484;2023-04-26T00:21:46;4.90;;;2.80;;
12947;SDS011;6539;49.476;8.484;2023-04-26T00:24:11;8.87;;;3.13;;
12947;SDS011;6539;49.476;8.484;2023-04-26T00:26:37;5.00;;;2.90;;
12947;SDS011;6539;49.476;8.484;2023-04-26T00:29:03;6.70;;;2.90;;
12947;SDS011;6539;49.476;8.484;2023-04-26T00:31:29;7.50;;;2.80;;
12947;SDS011;6539;49.476;8.484;2023-04-26T00:33:55;9.23;;;3.23;;
12947;SDS011;6539;49.476;8.484;2023-04-26T00:36:20;7.40;;;3.07;;
12947;SDS011;6539;49.476;8.484;2023-04-26T00:38:46;5.70;;;3.07;;
12947;SDS011;6539;49.476;8.484;2023-04-26T00:41:12;5.23;;;3.13;;
12947;SDS011;6539;49.476;8.484;2023-04-26T00:43:41;6.83;;;2.70;;
12947;SDS011;6539;49.476;8.484;2023-04-26T00:46:07;13.23;;;3.60;;
12947;SDS011;6539;49.476;8.484;2023-04-26T00:48:34;7.17;;;2.50;;
12947;SDS011;6539;49.476;8.484;2023-04-26T00:51:02;6.43;;;2.80;;
12947;SDS011;6539;49.476;8.484;2023-04-26T00:53:30;6.37;;;2.50;;
12947;SDS011;6539;49.476;8.484;2023-04-26T00:55:58;5.53;;;2.93;;
12947;SDS011;6539;49.476;8.484;2023-04-26T00:58:27;8.23;;;2.63;;
12947;SDS011;6539;49.476;8.484;2023-04-26T01:00:56;4.70;;;2.53;;
12947;SDS011;6539;49.476;8.484;2023-04-26T01:03:22;4.67;;;2.83;;
12947;SDS011;6539;49.476;8.484;2023-04-26T01:05:51;5.30;;;2.87;;
12947;SDS011;6539;49.476;8.484;2023-04-26T01:08:17;5.83;;;2.50;;
12947;SDS011;6539;49.476;8.484;2023-04-26T01:10:45;7.30;;;2.97;;
12947;SDS011;6539;49.476;8.484;2023-04-26T01:13:13;4.80;;;2.70;;
12947;SDS011;6539;49.476;8.484;2023-04-26T01:15:46;6.77;;;3.40;;
12947;SDS011;6539;49.476;8.484;2023-04-26T01:18:13;5.27;;;2.90;;
12947;SDS011;6539;49.476;8.484;2023-04-26T01:20:40;8.13;;;3.07;;
12947;SDS011;6539;49.476;8.484;2023-04-26T01:23:07;7.87;;;2.80;;
12947;SDS011;6539;49.476;8.484;2023-04-26T01:25:34;5.70;;;2.50;;
12947;SDS011;6539;49.476;8.484;2023-04-26T01:28:03;6.63;;;2.63;;
12947;SDS011;6539;49.476;8.484;2023-04-26T01:30:28;7.53;;;3.30;;
12947;SDS011;6539;49.476;8.484;2023-04-26T01:32:56;6.97;;;2.70;;
12947;SDS011;6539;49.476;8.484;2023-04-26T01:35:22;7.03;;;2.60;;
12947;SDS011;6539;49.476;8.484;2023-04-26T01:37:48;5.80;;;2.70;;
12947;SDS011;6539;49.476;8.484;2023-04-26T01:40:13;5.30;;;3.13;;
12947;SDS011;6539;49.476;8.484;2023-04-26T01:42:44;6.47;;;2.87;;
12947;SDS011;6539;49.476;8.484;2023-04-26T01:45:12;6.67;;;3.20;;
12947;SDS011;6539;49.476;8.484;2023-04-26T01:47:37;3.93;;;2.60;;
12947;SDS011;6539;49.476;8.484;2023-04-26T01:50:03;5.97;;;2.93;;
12947;SDS011;6539;49.476;8.484;2023-04-26T01:52:30;4.67;;;2.63;;
12947;SDS011;6539;49.476;8.484;2023-04-26T01:54:56;5.13;;;3.53;;
12947;SDS011;6539;49.476;8.484;2023-04-26T01:57:21;6.97;;;3.47;;
12947;SDS011;6539;49.476;8.484;2023-04-26T01:59:47;6.17;;;3.17;;
12947;SDS011;6539;49.476;8.484;2023-04-26T02:02:18;8.23;;;3.20;;
12947;SDS011;6539;49.476;8.484;2023-04-26T02:04:44;5.87;;;2.87;;
12947;SDS011;6539;49.476;8.484;2023-04-26T02:07:09;6.47;;;3.33;;
12947;SDS011;6539;49.476;8.484;2023-04-26T02:09:38;6.37;;;3.03;;
12947;SDS011;6539;49.476;8.484;2023-04-26T02:12:04;7.43;;;3.23;;
12947;SDS011;6539;49.476;8.484;2023-04-26T02:14:30;12.47;;;3.20;;
12947;SDS011;6539;49.476;8.484;2023-04-26T02:16:56;8.93;;;3.53;;
12947;SDS011;6539;49.476;8.484;2023-04-26T02:19:22;5.23;;;2.90;;
12947;SDS011;6539;49.476;8.484;2023-04-26T02:21:51;7.90;;;3.10;;
12947;SDS011;6539;49.476;8.484;2023-04-26T02:24:24;7.63;;;3.37;;
12947;SDS011;6539;49.476;8.484;2023-04-26T02:26:50;8.67;;;3.33;;
12947;SDS011;6539;49.476;8.484;2023-04-26T02:29:20;7.37;;;3.40;;
12947;SDS011;6539;49.476;8.484;2023-04-26T02:31:51;7.00;;;3.73;;
12947;SDS011;6539;49.476;8.484;2023-04-26T02:34:19;8.00;;;3.40;;
12947;SDS011;6539;49.476;8.484;2023-04-26T02:36:45;7.33;;;3.20;;
12947;SDS011;6539;49.476;8.484;2023-04-26T02:39:13;8.63;;;3.03;;
12947;SDS011;6539;49.476;8.484;2023-04-26T02:41:38;5.47;;;3.13;;
12947;SDS011;6539;49.476;8.484;2023-04-26T02:44:04;7.70;;;3.10;;
12947;SDS011;6539;49.476;8.484;2023-04-26T02:46:32;7.73;;;3.13;;
12947;SDS011;6539;49.476;8.484;2023-04-26T02:48:58;7.77;;;3.30;;
12947;SDS011;6539;49.476;8.484;2023-04-26T02:51:29;7.60;;;3.40;;
12947;SDS011;6539;49.476;8.484;2023-04-26T02:53:54;9.43;;;3.53;;
12947;SDS011;6539;49.476;8.484;2023-04-26T02:56:22;6.93;;;3.50;;
12947;SDS011;6539;49.476;8.484;2023-04-26T02:58:50;8.23;;;3.53;;
12947;SDS011;6539;49.476;8.484;2023-04-26T03:01:16;6.33;;;3.50;;
12947;SDS011;6539;49.476;8.484;2023-04-26T03:03:45;5.53;;;3.87;;
12947;SDS011;6539;49.476;8.484;2023-04-26T03:06:13;5.70;;;3.40;;
12947;SDS011;6539;49.476;8.484;2023-04-26T03:08:38;7.23;;;3.53;;
12947;SDS011;6539;49.476;8.484;2023-04-26T03:11:06;6.33;;;3.20;;
12947;SDS011;6539;49.476;8.484;2023-04-26T03:13:35;7.60;;;3.53;;
12947;SDS011;6539;49.476;8.484;2023-04-26T03:16:04;6.83;;;3.80;;
12947;SDS011;6539;49.476;8.484;2023-04-26T03:18:38;8.10;;;3.87;;
12947;SDS011;6539;49.476;8.484;2023-04-26T03:21:04;7.80;;;4.07;;
12947;SDS011;6539;49.476;8.484;2023-04-26T03:23:32;7.30;;;3.80;;
12947;SDS011;6539;49.476;8.484;2023-04-26T03:25:58;10.90;;;3.83;;
12947;SDS011;6539;49.476;8.484;2023-04-26T03:28:23;6.77;;;3.50;;
12947;SDS011;6539;49.476;8.484;2023-04-26T03:30:51;6.60;;;3.70;;
12947;SDS011;6539;49.476;8.484;2023-04-26T03:33:17;9.40;;;3.53;;
12947;SDS011;6539;49.476;8.484;2023-04-26T03:35:43;11.80;;;3.77;;
12947;SDS011;6539;49.476;8.484;2023-04-26T03:38:08;7.90;;;3.60;;
12947;SDS011;6539;49.476;8.484;2023-04-26T03:40:34;8.97;;;3.97;;
12947;SDS011;6539;49.476;8.484;2023-04-26T03:43:00;6.00;;;3.80;;
12947;SDS011;6539;49.476;8.484;2023-04-26T03:45:26;6.63;;;3.57;;
12947;SDS011;6539;49.476;8.484;2023-04-26T03:47:54;8.97;;;4.10;;
12947;SDS011;6539;49.476;8.484;2023-04-26T03:50:24;12.90;;;4.10;;
12947;SDS011;6539;49.476;8.484;2023-04-26T03:52:50;12.27;;;4.20;;
12947;SDS011;6539;49.476;8.484;2023-04-26T03:55:20;6.87;;;3.73;;
12947;SDS011;6539;49.476;8.484;2023-04-26T03:57:51;11.63;;;3.93;;
12947;SDS011;6539;49.476;8.484;2023-04-26T04:00:20;6.67;;;3.50;;
12947;SDS011;6539;49.476;8.484;2023-04-26T04:02:46;9.10;;;4.07;;
12947;SDS011;6539;49.476;8.484;2023-04-26T04:05:14;6.80;;;3.80;;
12947;SDS011;6539;49.476;8.484;2023-04-26T04:07:42;11.37;;;4.13;;
12947;SDS011;6539;49.476;8.484;2023-04-26T04:10:08;5.63;;;3.80;;
12947;SDS011;6539;49.476;8.484;2023-04-26T04:12:34;9.67;;;4.10;;
12947;SDS011;6539;49.476;8.484;2023-04-26T04:15:02;7.70;;;3.83;;
12947;SDS011;6539;49.476;8.484;2023-04-26T04:17:28;7.83;;;3.80;;
12947;SDS011;6539;49.476;8.484;2023-04-26T04:19:56;12.00;;;3.67;;
12947;SDS011;6539;49.476;8.484;2023-04-26T04:22:25;7.10;;;4.00;;
12947;SDS011;6539;49.476;8.484;2023-04-26T04:24:53;7.73;;;3.53;;
12947;SDS011;6539;49.476;8.484;2023-04-26T04:27:19;7.90;;;3.70;;
12947;SDS011;6539;49.476;8.484;2023-04-26T04:29:45;6.20;;;3.80;;
12947;SDS011;6539;49.476;8.484;2023-04-26T04:32:13;9.27;;;4.10;;
12947;SDS011;6539;49.476;8.484;2023-04-26T04:34:39;9.20;;;4.30;;
12947;SDS011;6539;49.476;8.484;2023-04-26T04:37:05;6.23;;;3.57;;
12947;SDS011;6539;49.476;8.484;2023-04-26T04:39:31;6.80;;;3.83;;
12947;SDS011;6539;49.476;8.484;2023-04-26T04:41:57;8.37;;;3.90;;
12947;SDS011;6539;49.476;8.484;2023-04-26T04:44:27;9.00;;;3.90;;
12947;SDS011;6539;49.476;8.484;2023-04-26T04:46:53;7.77;;;4.03;;
12947;SDS011;6539;49.476;8.484;2023-04-26T04:49:19;8.77;;;3.83;;
12947;SDS011;6539;49.476;8.484;2023-04-26T04:51:45;6.00;;;3.70;;
12947;SDS011;6539;49.476;8.484;2023-04-26T04:54:16;11.47;;;4.17;;
12947;SDS011;6539;49.476;8.484;2023-04-26T04:56:43;9.00;;;4.07;;
12947;SDS011;6539;49.476;8.484;2023-04-26T04:59:10;7.03;;;3.70;;
12947;SDS011;6539;49.476;8.484;2023-04-26T05:01:38;9.27;;;4.10;;
12947;SDS011;6539;49.476;8.484;2023-04-26T05:04:04;6.77;;;4.40;;
12947;SDS011;6539;49.476;8.484;2023-04-26T05:06:33;6.90;;;4.00;;
12947;SDS011;6539;49.476;8.484;2023-04-26T05:09:01;8.73;;;3.83;;
12947;SDS011;6539;49.476;8.484;2023-04-26T05:11:29;6.03;;;3.47;;
12947;SDS011;6539;49.476;8.484;2023-04-26T05:13:59;7.23;;;4.20;;
12947;SDS011;6539;49.476;8.484;2023-04-26T05:16:25;11.83;;;4.73;;
12947;SDS011;6539;49.476;8.484;2023-04-26T05:18:51;16.13;;;5.97;;
12947;SDS011;6539;49.476;8.484;2023-04-26T05:21:17;8.27;;;4.60;;
12947;SDS011;6539;49.476;8.484;2023-04-26T05:23:48;9.83;;;4.10;;
12947;SDS011;6539;49.476;8.484;2023-04-26T05:26:15;8.03;;;4.40;;
12947;SDS011;6539;49.476;8.484;2023-04-26T05:28:43;12.17;;;4.90;;
12947;SDS011;6539;49.476;8.484;2023-04-26T05:31:10;11.23;;;4.50;;
12947;SDS011;6539;49.476;8.484;2023-04-26T05:33:36;9.87;;;4.70;;
12947;SDS011;6539;49.476;8.484;2023-04-26T05:36:06;11.07;;;4.70;;
12947;SDS011;6539;49.476;8.484;2023-04-26T05:38:33;8.63;;;4.73;;
12947;SDS011;6539;49.476;8.484;2023-04-26T05:41:02;5.63;;;4.30;;
12947;SDS011;6539;49.476;8.484;2023-04-26T05:43:30;8.10;;;3.80;;
12947;SDS011;6539;49.476;8.484;2023-04-26T05:45:56;8.47;;;3.97;;
12947;SDS011;6539;49.476;8.484;2023-04-26T05:48:22;12.40;;;4.00;;
12947;SDS011;6539;49.476;8.484;2023-04-26T05:50:51;10.47;;;4.70;;
12947;SDS011;6539;49.476;8.484;2023-04-26T05:53:17;10.33;;;4.60;;
12947;SDS011;6539;49.476;8.484;2023-04-26T05:55:44;7.10;;;3.77;;
12947;SDS011;6539;49.476;8.484;2023-04-26T05:58:10;9.80;;;4.10;;
12947;SDS011;6539;49.476;8.484;2023-04-26T06:00:36;6.93;;;4.00;;
12947;SDS011;6539;49.476;8.484;2023-04-26T06:03:03;10.67;;;3.90;;
12947;SDS011;6539;49.476;8.484;2023-04-26T06:05:32;9.57;;;4.60;;
12947;SDS011;6539;49.476;8.484;2023-04-26T06:08:04;11.13;;;4.80;;
12947;SDS011;6539;49.476;8.484;2023-04-26T06:10:35;12.03;;;6.03;;
12947;SDS011;6539;49.476;8.484;2023-04-26T06:13:01;8.10;;;3.77;;
12947;SDS011;6539;49.476;8.484;2023-04-26T06:15:28;9.60;;;4.80;;
12947;SDS011;6539;49.476;8.484;2023-04-26T06:17:58;8.50;;;4.60;;
12947;SDS011;6539;49.476;8.484;2023-04-26T06:20:24;8.93;;;4.70;;
12947;SDS011;6539;49.476;8.484;2023-04-26T06:22:50;9.57;;;4.80;;
12947;SDS011;6539;49.476;8.484;2023-04-26T06:25:16;11.03;;;5.00;;
12947;SDS011;6539;49.476;8.484;2023-04-26T06:27:41;7.40;;;5.07;;
12947;SDS011;6539;49.476;8.484;2023-04-26T06:30:07;10.23;;;4.93;;
12947;SDS011;6539;49.476;8.484;2023-04-26T06:32:33;9.53;;;4.93;;
12947;SDS011;6539;49.476;8.484;2023-04-26T06:35:02;12.50;;;5.37;;
12947;SDS011;6539;49.476;8.484;2023-04-26T06:37:28;8.00;;;5.17;;
12947;SDS011;6539;49.476;8.484;2023-04-26T06:39:58;12.87;;;5.07;;
12947;SDS011;6539;49.476;8.484;2023-04-26T06:42:30;7.60;;;4.20;;
12947;SDS011;6539;49.476;8.484;2023-04-26T06:44:58;7.90;;;4.97;;
12947;SDS011;6539;49.476;8.484;2023-04-26T06:47:28;11.43;;;4.20;;
12947;SDS011;6539;49.476;8.484;2023-04-26T06:49:54;12.30;;;5.07;;
12947;SDS011;6539;49.476;8.484;2023-04-26T06:52:25;8.73;;;4.60;;
12947;SDS011;6539;49.476;8.484;2023-04-26T06:54:53;10.63;;;5.03;;
12947;SDS011;6539;49.476;8.484;2023-04-26T06:57:19;10.70;;;5.00;;
12947;SDS011;6539;49.476;8.484;2023-04-26T06:59:48;11.77;;;5.03;;
12947;SDS011;6539;49.476;8.484;2023-04-26T07:02:13;12.07;;;5.60;;
12947;SDS011;6539;49.476;8.484;2023-04-26T07:04:41;12.97;;;5.00;;
12947;SDS011;6539;49.476;8.484;2023-04-26T07:07:12;11.83;;;4.73;;
12947;SDS011;6539;49.476;8.484;2023-04-26T07:09:41;12.40;;;5.20;;
12947;SDS011;6539;49.476;8.484;2023-04-26T07:12:15;9.37;;;4.50;;
12947;SDS011;6539;49.476;8.484;2023-04-26T07:14:43;7.80;;;3.73;;
12947;SDS011;6539;49.476;8.484;2023-04-26T07:17:11;13.17;;;4.77;;
12947;SDS011;6539;49.476;8.484;2023-04-26T07:19:37;12.03;;;4.87;;
12947;SDS011;6539;49.476;8.484;2023-04-26T07:22:03;10.30;;;4.93;;
12947;SDS011;6539;49.476;8.484;2023-04-26T07:24:38;10.43;;;5.33;;
12947;SDS011;6539;49.476;8.484;2023-04-26T07:27:04;10.80;;;5.17;;
12947;SDS011;6539;49.476;8.484;2023-04-26T07:29:32;11.23;;;4.93;;
12947;SDS011;6539;49.476;8.484;2023-04-26T07:32:02;10.80;;;4.20;;
12947;SDS011;6539;49.476;8.484;2023-04-26T07:34:30;11.07;;;4.43;;
12947;SDS011;6539;49.476;8.484;2023-04-26T07:36:59;8.43;;;4.27;;
12947;SDS011;6539;49.476;8.484;2023-04-26T07:39:28;7.60;;;4.33;;
12947;SDS011;6539;49.476;8.484;2023-04-26T07:41:56;11.60;;;4.53;;
12947;SDS011;6539;49.476;8.484;2023-04-26T07:44:25;5.10;;;3.73;;
12947;SDS011;6539;49.476;8.484;2023-04-26T07:46:51;7.57;;;4.50;;
12947;SDS011;6539;49.476;8.484;2023-04-26T07:49:17;5.93;;;4.53;;
12947;SDS011;6539;49.476;8.484;2023-04-26T07:51:50;8.93;;;4.37;;
12947;SDS011;6539;49.476;8.484;2023-04-26T07:54:19;10.40;;;4.40;;
12947;SDS011;6539;49.476;8.484;2023-04-26T07:56:45;9.50;;;4.17;;
12947;SDS011;6539;49.476;8.484;2023-04-26T07:59:10;6.83;;;4.23;;
12947;SDS011;6539;49.476;8.484;2023-04-26T08:01:38;7.07;;;3.90;;
12947;SDS011;6539;49.476;8.484;2023-04-26T08:04:09;11.57;;;4.73;;
12947;SDS011;6539;49.476;8.484;2023-04-26T08:06:35;8.60;;;4.00;;
12947;SDS011;6539;49.476;8.484;2023-04-26T08:09:02;11.93;;;4.67;;
12947;SDS011;6539;49.476;8.484;2023-04-26T08:11:29;8.87;;;4.70;;
12947;SDS011;6539;49.476;8.484;2023-04-26T08:13:57;8.13;;;4.60;;
12947;SDS011;6539;49.476;8.484;2023-04-26T08:16:31;7.47;;;4.33;;
12947;SDS011;6539;49.476;8.484;2023-04-26T08:18:57;9.00;;;5.03;;
12947;SDS011;6539;49.476;8.484;2023-04-26T08:21:26;6.97;;;4.83;;
12947;SDS011;6539;49.476;8.484;2023-04-26T08:23:52;11.47;;;5.27;;
12947;SDS011;6539;49.476;8.484;2023-04-26T08:26:18;10.97;;;5.23;;
12947;SDS011;6539;49.476;8.484;2023-04-26T08:28:44;7.73;;;4.83;;
12947;SDS011;6539;49.476;8.484;2023-04-26T08:31:10;10.37;;;5.53;;
12947;SDS011;6539;49.476;8.484;2023-04-26T08:33:36;10.57;;;4.93;;
12947;SDS011;6539;49.476;8.484;2023-04-26T08:36:01;8.73;;;4.50;;
12947;SDS011;6539;49.476;8.484;2023-04-26T08:38:27;9.90;;;4.87;;
12947;SDS011;6539;49.476;8.484;2023-04-26T08:40:53;10.00;;;4.77;;
12947;SDS011;6539;49.476;8.484;2023-04-26T08:43:25;8.17;;;5.00;;
12947;SDS011;6539;49.476;8.484;2023-04-26T08:45:56;9.03;;;5.07;;
12947;SDS011;6539;49.476;8.484;2023-04-26T08:48:24;9.00;;;5.40;;
12947;SDS011;6539;49.476;8.484;2023-04-26T08:50:52;10.63;;;5.20;;
12947;SDS011;6539;49.476;8.484;2023-04-26T08:53:19;9.63;;;5.43;;
12947;SDS011;6539;49.476;8.484;2023-04-26T08:55:48;9.83;;;5.10;;
12947;SDS011;6539;49.476;8.484;2023-04-26T08:58:17;12.67;;;5.23;;
12947;SDS011;6539;49.476;8.484;2023-04-26T09:00:44;10.30;;;5.83;;
12947;SDS011;6539;49.476;8.484;2023-04-26T09:03:10;9.47;;;5.00;;
12947;SDS011;6539;49.476;8.484;2023-04-26T09:05:39;7.53;;;5.10;;
12947;SDS011;6539;49.476;8.484;2023-04-26T09:08:11;9.90;;;4.70;;
12947;SDS011;6539;49.476;8.484;2023-04-26T09:10:41;7.87;;;4.70;;
12947;SDS011;6539;49.476;8.484;2023-04-26T09:13:12;8.00;;;4.07;;
12947;SDS011;6539;49.476;8.484;2023-04-26T09:15:38;11.00;;;4.20;;
12947;SDS011;6539;49.476;8.484;2023-04-26T09:18:15;8.47;;;5.63;;
12947;SDS011;6539;49.476;8.484;2023-04-26T09:21:00;8.17;;;4.67;;
12947;SDS011;6539;49.476;8.484;2023-04-26T09:23:31;10.40;;;4.70;;
12947;SDS011;6539;49.476;8.484;2023-04-26T09:26:18;7.27;;;4.27;;
12947;SDS011;6539;49.476;8.484;2023-04-26T09:28:46;8.57;;;4.57;;
12947;SDS011;6539;49.476;8.484;2023-04-26T09:31:57;7.63;;;4.17;;
12947;SDS011;6539;49.476;8.484;2023-04-26T09:34:08;8.37;;;4.03;;
12947;SDS011;6539;49.476;8.484;2023-04-26T09:36:45;5.37;;;3.10;;
12947;SDS011;6539;49.476;8.484;2023-04-26T09:39:11;7.13;;;3.00;;
12947;SDS011;6539;49.476;8.484;2023-04-26T09:41:45;6.43;;;2.90;;
12947;SDS011;6539;49.476;8.484;2023-04-26T09:44:21;6.63;;;3.20;;
12947;SDS011;6539;49.476;8.484;2023-04-26T09:47:06;5.77;;;3.50;;
12947;SDS011;6539;49.476;8.484;2023-04-26T09:49:46;8.47;;;4.07;;
12947;SDS011;6539;49.476;8.484;2023-04-26T09:52:17;6.67;;;4.07;;
12947;SDS011;6539;49.476;8.484;2023-04-26T09:54:46;7.53;;;4.33;;
12947;SDS011;6539;49.476;8.484;2023-04-26T09:57:17;8.27;;;4.47;;
12947;SDS011;6539;49.476;8.484;2023-04-26T09:59:49;8.17;;;4.47;;
12947;SDS011;6539;49.476;8.484;2023-04-26T10:04:52;7.60;;;4.53;;
12947;SDS011;6539;49.476;8.484;2023-04-26T10:07:26;7.53;;;4.40;;
12947;SDS011;6539;49.476;8.484;2023-04-26T10:09:52;10.00;;;4.33;;
12947;SDS011;6539;49.476;8.484;2023-04-26T10:12:19;7.60;;;4.77;;
12947;SDS011;6539;49.476;8.484;2023-04-26T10:14:45;10.10;;;4.73;;
12947;SDS011;6539;49.476;8.484;2023-04-26T10:17:12;8.47;;;3.87;;
12947;SDS011;6539;49.476;8.484;2023-04-26T10:19:39;7.57;;;4.87;;
12947;SDS011;6539;49.476;8.484;2023-04-26T10:22:18;12.00;;;5.40;;
12947;SDS011;6539;49.476;8.484;2023-04-26T10:24:49;10.97;;;4.47;;
12947;SDS011;6539;49.476;8.484;2023-04-26T10:30:08;8.47;;;5.27;;
12947;SDS011;6539;49.476;8.484;2023-04-26T10:33:21;8.00;;;4.40;;
12947;SDS011;6539;49.476;8.484;2023-04-26T10:45:41;7.70;;;3.70;;
12947;SDS011;6539;49.476;8.484;2023-04-26T10:56:10;5.17;;;3.30;;
12947;SDS011;6539;49.476;8.484;2023-04-26T10:58:48;6.10;;;4.20;;
12947;SDS011;6539;49.476;8.484;2023-04-26T11:01:32;5.37;;;3.97;;
12947;SDS011;6539;49.476;8.484;2023-04-26T11:06:23;5.37;;;4.13;;
12947;SDS011;6539;49.476;8.484;2023-04-26T11:08:55;6.13;;;3.90;;
12947;SDS011;6539;49.476;8.484;2023-04-26T11:11:24;6.83;;;3.63;;
12947;SDS011;6539;49.476;8.484;2023-04-26T11:13:55;6.90;;;3.70;;
12947;SDS011;6539;49.476;8.484;2023-04-26T11:16:27;6.47;;;4.30;;
12947;SDS011;6539;49.476;8.484;2023-04-26T11:18:53;7.83;;;4.30;;
12947;SDS011;6539;49.476;8.484;2023-04-26T11:21:19;9.77;;;4.60;;
12947;SDS011;6539;49.476;8.484;2023-04-26T11:23:52;7.20;;;4.30;;
12947;SDS011;6539;49.476;8.484;2023-04-26T11:26:19;12.47;;;4.43;;
12947;SDS011;6539;49.476;8.484;2023-04-26T11:28:48;5.63;;;4.20;;
12947;SDS011;6539;49.476;8.484;2023-04-26T11:31:17;8.33;;;4.43;;
12947;SDS011;6539;49.476;8.484;2023-04-26T11:33:43;7.57;;;4.93;;
12947;SDS011;6539;49.476;8.484;2023-04-26T11:36:09;8.07;;;4.67;;
12947;SDS011;6539;49.476;8.484;2023-04-26T11:38:34;5.33;;;4.50;;
12947;SDS011;6539;49.476;8.484;2023-04-26T11:41:02;8.53;;;5.13;;
12947;SDS011;6539;49.476;8.484;2023-04-26T11:43:34;7.40;;;4.47;;
12947;SDS011;6539;49.476;8.484;2023-04-26T11:46:04;6.17;;;4.13;;
12947;SDS011;6539;49.476;8.484;2023-04-26T11:48:34;8.53;;;3.97;;
12947;SDS011;6539;49.476;8.484;2023-04-26T11:51:02;7.63;;;4.80;;
12947;SDS011;6539;49.476;8.484;2023-04-26T11:56:15;7.90;;;4.83;;
12947;SDS011;6539;49.476;8.484;2023-04-26T11:58:49;5.73;;;4.23;;
12947;SDS011;6539;49.476;8.484;2023-04-26T12:01:24;6.67;;;3.97;;
12947;SDS011;6539;49.476;8.484;2023-04-26T12:03:56;8.67;;;4.73;;
12947;SDS011;6539;49.476;8.484;2023-04-26T12:06:42;4.57;;;4.00;;
12947;SDS011;6539;49.476;8.484;2023-04-26T12:09:12;7.80;;;4.53;;
12947;SDS011;6539;49.476;8.484;2023-04-26T12:11:46;6.67;;;4.10;;
12947;SDS011;6539;49.476;8.484;2023-04-26T12:14:17;6.27;;;4.30;;
12947;SDS011;6539;49.476;8.484;2023-04-26T12:16:45;7.03;;;4.87;;
12947;SDS011;6539;49.476;8.484;2023-04-26T12:19:10;6.10;;;4.33;;
12947;SDS011;6539;49.476;8.484;2023-04-26T12:21:42;6.87;;;4.30;;
12947;SDS011;6539;49.476;8.484;2023-04-26T12:24:21;4.70;;;3.43;;
12947;SDS011;6539;49.476;8.484;2023-04-26T12:27:03;5.73;;;4.00;;
12947;SDS011;6539;49.476;8.484;2023-04-26T12:29:30;6.47;;;3.43;;
12947;SDS011;6539;49.476;8.484;2023-04-26T12:31:57;7.60;;;3.80;;
12947;SDS011;6539;49.476;8.484;2023-04-26T12:34:24;6.60;;;4.03;;
12947;SDS011;6539;49.476;8.484;2023-04-26T12:36:53;5.60;;;3.70;;
12947;SDS011;6539;49.476;8.484;2023-04-26T12:39:21;6.83;;;4.40;;
12947;SDS011;6539;49.476;8.484;2023-04-26T12:41:47;6.00;;;4.33;;
12947;SDS011;6539;49.476;8.484;2023-04-26T12:44:13;5.97;;;3.67;;
12947;SDS011;6539;49.476;8.484;2023-04-26T12:46:43;5.53;;;3.70;;
12947;SDS011;6539;49.476;8.484;2023-04-26T12:49:10;5.23;;;3.90;;
12947;SDS011;6539;49.476;8.484;2023-04-26T12:51:38;7.13;;;4.30;;
12947;SDS011;6539;49.476;8.484;2023-04-26T12:54:09;8.27;;;4.50;;
12947;SDS011;6539;49.476;8.484;2023-04-26T12:56:34;6.87;;;4.10;;
12947;SDS011;6539;49.476;8.484;2023-04-26T12:59:10;7.30;;;3.90;;
12947;SDS011;6539;49.476;8.484;2023-04-26T13:01:35;6.50;;;4.13;;
12947;SDS011;6539;49.476;8.484;2023-04-26T13:04:03;7.13;;;4.10;;
12947;SDS011;6539;49.476;8.484;2023-04-26T13:06:29;7.73;;;4.40;;
12947;SDS011;6539;49.476;8.484;2023-04-26T13:08:56;5.37;;;3.90;;
12947;SDS011;6539;49.476;8.484;2023-04-26T13:11:22;7.77;;;4.40;;
12947;SDS011;6539;49.476;8.484;2023-04-26T13:13:50;6.00;;;4.20;;
12947;SDS011;6539;49.476;8.484;2023-04-26T13:16:16;8.23;;;4.67;;
12947;SDS011;6539;49.476;8.484;2023-04-26T13:18:44;10.43;;;5.40;;
12947;SDS011;6539;49.476;8.484;2023-04-26T13:21:10;5.13;;;3.57;;
12947;SDS011;6539;49.476;8.484;2023-04-26T13:23:38;6.60;;;4.17;;
12947;SDS011;6539;49.476;8.484;2023-04-26T13:26:06;5.33;;;4.03;;
12947;SDS011;6539;49.476;8.484;2023-04-26T13:28:34;6.50;;;3.50;;
12947;SDS011;6539;49.476;8.484;2023-04-26T13:31:01;8.47;;;4.40;;
12947;SDS011;6539;49.476;8.484;2023-04-26T13:33:27;5.97;;;4.37;;
12947;SDS011;6539;49.476;8.484;2023-04-26T13:35:53;7.90;;;4.17;;
12947;SDS011;6539;49.476;8.484;2023-04-26T13:38:21;9.20;;;4.00;;
12947;SDS011;6539;49.476;8.484;2023-04-26T13:40:48;6.00;;;3.67;;
12947;SDS011;6539;49.476;8.484;2023-04-26T13:43:14;7.67;;;4.53;;
12947;SDS011;6539;49.476;8.484;2023-04-26T13:45:40;8.17;;;4.37;;
12947;SDS011;6539;49.476;8.484;2023-04-26T13:48:08;8.90;;;3.73;;
12947;SDS011;6539;49.476;8.484;2023-04-26T13:50:34;10.10;;;4.07;;
12947;SDS011;6539;49.476;8.484;2023-04-26T13:53:01;6.73;;;4.60;;
12947;SDS011;6539;49.476;8.484;2023-04-26T13:55:27;6.73;;;3.93;;
12947;SDS011;6539;49.476;8.484;2023-04-26T13:57:56;9.17;;;4.20;;
12947;SDS011;6539;49.476;8.484;2023-04-26T14:00:24;9.27;;;4.60;;
12947;SDS011;6539;49.476;8.484;2023-04-26T14:02:51;8.47;;;3.83;;
12947;SDS011;6539;49.476;8.484;2023-04-26T14:05:19;6.77;;;3.53;;
12947;SDS011;6539;49.476;8.484;2023-04-26T14:07:45;8.30;;;3.40;;
12947;SDS011;6539;49.476;8.484;2023-04-26T14:10:11;6.87;;;3.60;;
12947;SDS011;6539;49.476;8.484;2023-04-26T14:12:42;8.13;;;3.63;;
12947;SDS011;6539;49.476;8.484;2023-04-26T14:15:07;9.97;;;3.90;;
12947;SDS011;6539;49.476;8.484;2023-04-26T14:17:34;6.97;;;3.60;;
12947;SDS011;6539;49.476;8.484;2023-04-26T14:20:02;7.53;;;4.00;;
12947;SDS011;6539;49.476;8.484;2023-04-26T14:22:29;5.57;;;3.30;;
12947;SDS011;6539;49.476;8.484;2023-04-26T14:24:55;7.03;;;3.83;;
12947;SDS011;6539;49.476;8.484;2023-04-26T14:27:25;8.03;;;4.40;;
12947;SDS011;6539;49.476;8.484;2023-04-26T14:29:51;6.30;;;3.70;;
12947;SDS011;6539;49.476;8.484;2023-04-26T14:32:17;7.20;;;3.73;;
12947;SDS011;6539;49.476;8.484;2023-04-26T14:34:43;7.10;;;3.50;;
12947;SDS011;6539;49.476;8.484;2023-04-26T14:37:11;4.63;;;3.00;;
12947;SDS011;6539;49.476;8.484;2023-04-26T14:39:37;7.33;;;3.00;;
12947;SDS011;6539;49.476;8.484;2023-04-26T14:42:02;7.57;;;3.90;;
12947;SDS011;6539;49.476;8.484;2023-04-26T14:44:28;7.40;;;3.37;;
12947;SDS011;6539;49.476;8.484;2023-04-26T14:47:00;5.77;;;3.23;;
12947;SDS011;6539;49.476;8.484;2023-04-26T14:49:26;4.57;;;3.23;;
12947;SDS011;6539;49.476;8.484;2023-04-26T14:51:55;6.70;;;4.70;;
12947;SDS011;6539;49.476;8.484;2023-04-26T14:54:20;7.73;;;4.30;;
12947;SDS011;6539;49.476;8.484;2023-04-26T14:56:51;10.90;;;5.77;;
12947;SDS011;6539;49.476;8.484;2023-04-26T14:59:19;6.70;;;3.40;;
12947;SDS011;6539;49.476;8.484;2023-04-26T15:01:47;5.23;;;3.30;;
12947;SDS011;6539;49.476;8.484;2023-04-26T15:04:15;6.80;;;3.17;;
12947;SDS011;6539;49.476;8.484;2023-04-26T15:06:41;6.47;;;3.60;;
12947;SDS011;6539;49.476;8.484;2023-04-26T15:09:07;6.83;;;2.93;;
12947;SDS011;6539;49.476;8.484;2023-04-26T15:11:35;8.60;;;4.27;;
12947;SDS011;6539;49.476;8.484;2023-04-26T15:14:04;7.77;;;3.70;;
12947;SDS011;6539;49.476;8.484;2023-04-26T15:16:31;5.13;;;3.00;;
12947;SDS011;6539;49.476;8.484;2023-04-26T15:18:57;7.70;;;2.80;;
12947;SDS011;6539;49.476;8.484;2023-04-26T15:21:23;5.90;;;2.90;;
12947;SDS011;6539;49.476;8.484;2023-04-26T15:23:53;5.63;;;2.70;;
12947;SDS011;6539;49.476;8.484;2023-04-26T15:26:20;8.57;;;3.87;;
12947;SDS011;6539;49.476;8.484;2023-04-26T15:28:51;4.43;;;3.10;;
12947;SDS011;6539;49.476;8.484;2023-04-26T15:31:17;5.77;;;3.00;;
12947;SDS011;6539;49.476;8.484;2023-04-26T15:33:53;7.77;;;2.87;;